Nibulon 1 — UUAS4 — position and weather

sailwx.info

Track history (hours):
 
Tides and Currents Weather Stations Pressure Air Temp Water Temp Dewpoint Dewpoint Depression Visibility Wind Speed Wind Dir Waves Ship Positions

Nibulon 1

Last reported at 2017-Aug-23 13:30 UTC. Time now 2017-Aug-23 13:49 UTC.
Position N 46°34' E 031°19'.

Length 38 m; draft 2.6 m.

Type: Tug. MMSI: 272641000.

Date/timePositionNaut miles runAvg speedWind from/ knotsBaromVisibWave heightAir tempDewpointWater temp
2017-Aug-23 13:30N 46°34' E 031°19'2 4.3
2017-Aug-23 12:59N 46°34' E 031°22'14 4.5
2017-Aug-23 09:59N 46°35' E 031°42'2 4.9
2017-Aug-23 09:30N 46°36' E 031°45'2 4.9
2017-Aug-23 09:00N 46°36' E 031°49'2 5.0
2017-Aug-23 08:31N 46°37' E 031°52'2 4.7
2017-Aug-23 08:01N 46°38' E 031°55'2 4.5
2017-Aug-23 07:31N 46°40' E 031°56'3 6.4
2017-Aug-23 07:00N 46°37' E 031°54'4 8.6
2017-Aug-23 06:30N 46°36' E 031°48'5 8.8
2017-Aug-23 05:55N 46°35' E 031°41'4 3.7
2017-Aug-23 04:54N 46°36' E 031°35'0 0.0
2017-Aug-23 03:39N 46°36' E 031°35'0 0.0
2017-Aug-23 03:30N 46°36' E 031°35'0 0.0
2017-Aug-23 02:54N 46°37' E 031°35'0 0.0
2017-Aug-23 02:24N 46°36' E 031°35'0 0.0
2017-Aug-23 02:00N 46°36' E 031°35'0 0.0
2017-Aug-23 01:30N 46°36' E 031°35'0 0.0
2017-Aug-23 00:42N 46°36' E 031°35'0 0.1
2017-Aug-23 00:18N 46°36' E 031°35'0 0.0
2017-Aug-22 23:54N 46°37' E 031°35'1 0.0
2017-Aug-22 01:48N 46°37' E 031°34'1 1.9
2017-Aug-22 01:30N 46°36' E 031°35'0 0.0
2017-Aug-22 00:42N 46°36' E 031°35'0 0.1
2017-Aug-22 00:30N 46°36' E 031°35'0 0.0
2017-Aug-21 23:24N 46°36' E 031°35'0 0.0
2017-Aug-21 22:30N 46°36' E 031°35'0 0.0
2017-Aug-21 22:00N 46°36' E 031°35'0 0.0
2017-Aug-21 21:30N 46°36' E 031°35'0 0.0
2017-Aug-21 20:57N 46°36' E 031°35'0 0.0
2017-Aug-21 20:18N 46°36' E 031°35'0 0.1
2017-Aug-21 19:54N 46°36' E 031°35'0 0.0
2017-Aug-21 19:27N 46°36' E 031°35'0 0.0
2017-Aug-21 19:00N 46°36' E 031°35'0 0.1
2017-Aug-21 17:12N 46°37' E 031°35'0 0.2
2017-Aug-21 17:00N 46°37' E 031°35'0 0.0
2017-Aug-21 16:30N 46°37' E 031°35'0 0.1
2017-Aug-21 15:06N 46°37' E 031°35'0 0.1
2017-Aug-21 14:06N 46°37' E 031°35'0 0.1
2017-Aug-21 12:54N 46°37' E 031°35'0 0.0
2017-Aug-21 04:30N 46°36' E 031°35'0 0.0
2017-Aug-21 03:54N 46°36' E 031°35'0 0.0
2017-Aug-21 03:06N 46°36' E 031°35'0 0.0
2017-Aug-21 03:00N 46°36' E 031°35'0 0.0
2017-Aug-21 02:24N 46°36' E 031°35'0 0.0
2017-Aug-20 05:42N 46°36' E 031°35'0 0.0
2017-Aug-20 05:30N 46°36' E 031°35'0 0.0
2017-Aug-20 05:00N 46°36' E 031°35'0 0.0
2017-Aug-20 04:30N 46°36' E 031°35'0 0.0
2017-Aug-20 04:00N 46°36' E 031°35'0 0.0
2017-Aug-20 03:30N 46°36' E 031°35'0 0.0
2017-Aug-20 03:00N 46°36' E 031°35'0 0.0
2017-Aug-19 21:06N 46°36' E 031°35'0 0.0
2017-Aug-19 20:36N 46°36' E 031°35'0 0.0
2017-Aug-19 20:27N 46°36' E 031°35'0 0.0
2017-Aug-19 19:54N 46°36' E 031°35'0 0.0
2017-Aug-19 19:30N 46°36' E 031°35'0 0.0
2017-Aug-19 19:00N 46°36' E 031°35'0 0.0
2017-Aug-19 10:36N 46°36' E 031°35'0 0.0
2017-Aug-19 06:48N 46°36' E 031°35'0 0.0
2017-Aug-19 06:27N 46°36' E 031°35'0 0.0
2017-Aug-19 06:00N 46°36' E 031°35'0 0.0
2017-Aug-19 05:30N 46°36' E 031°35'0 0.0
2017-Aug-19 05:00N 46°36' E 031°35'0 0.2
2017-Aug-19 04:30N 46°36' E 031°35'1 1.9
2017-Aug-19 04:00N 46°36' E 031°36'1 2.9
2017-Aug-19 03:31N 46°35' E 031°38'2 3.1
2017-Aug-19 03:00N 46°35' E 031°41'2 3.1
2017-Aug-19 02:31N 46°35' E 031°43'2 3.2
2017-Aug-19 02:00N 46°35' E 031°45'2 3.3
2017-Aug-19 01:30N 46°35' E 031°48'2 3.2
2017-Aug-19 01:01N 46°35' E 031°50'2 3.2
2017-Aug-19 00:31N 46°35' E 031°52'2 3.2
2017-Aug-19 00:00N 46°34' E 031°54'2 3.2
2017-Aug-18 23:31N 46°34' E 031°57'2 3.2
2017-Aug-18 23:01N 46°33' E 031°59'2 3.2
2017-Aug-18 22:30N 46°33' E 032°01'2 3.2
2017-Aug-18 22:00N 46°32' E 032°03'2 3.3
2017-Aug-18 21:30N 46°32' E 032°06'2 3.4
2017-Aug-18 20:58N 46°32' E 032°08'3 3.3
2017-Aug-18 20:02N 46°33' E 032°12'  
2017-Aug-15 21:09N 46°33' E 032°19'1 4.2
2017-Aug-15 21:00N 46°33' E 032°18'2 4.2
2017-Aug-15 20:31N 46°33' E 032°15'2 4.6
2017-Aug-15 20:00N 46°33' E 032°12'2 4.6
2017-Aug-15 19:30N 46°32' E 032°09'2 4.6
2017-Aug-15 19:01N 46°32' E 032°05'2 4.6
2017-Aug-15 18:31N 46°32' E 032°02'2 4.7
2017-Aug-15 18:01N 46°33' E 031°59'25 4.4
2017-Aug-15 12:14N 46°35' E 031°22'1 5.3
2017-Aug-15 12:01N 46°35' E 031°20'0 0.1
2017-Aug-15 11:06N 46°35' E 031°20'0 0.1
2017-Aug-15 11:00N 46°35' E 031°20'0 0.1
2017-Aug-15 10:21N 46°35' E 031°20'0 1.2
2017-Aug-15 10:00N 46°35' E 031°20'0 0.0
2017-Aug-15 08:36N 46°35' E 031°20'0 0.0
2017-Aug-15 08:18N 46°35' E 031°20'0 0.0
2017-Aug-15 06:33N 46°35' E 031°20'0 0.0
2017-Aug-15 06:15N 46°35' E 031°20'0 0.0
2017-Aug-15 05:48N 46°35' E 031°20'0 0.0
2017-Aug-15 05:27N 46°35' E 031°20'0 0.4
2017-Aug-15 04:48N 46°35' E 031°20'1 4.3
2017-Aug-15 04:30N 46°35' E 031°22'6 4.5
2017-Aug-15 03:17N 46°36' E 031°30'2 4.7
2017-Aug-15 02:56N 46°35' E 031°32'2 0.5
2017-Aug-14 21:43N 46°36' E 031°35'2 5.8
2017-Aug-14 21:26N 46°35' E 031°33'2 5.4
2017-Aug-14 21:00N 46°36' E 031°30'3 5.3
2017-Aug-14 20:30N 46°35' E 031°26'3 5.5
2017-Aug-14 20:00N 46°35' E 031°22'1 2.5
2017-Aug-14 19:28N 46°35' E 031°20'0 0.1
2017-Aug-14 18:46N 46°35' E 031°20'0 0.0
2017-Aug-14 18:25N 46°35' E 031°20'0 0.0
2017-Aug-14 17:43N 46°35' E 031°20'0 0.0
2017-Aug-14 17:28N 46°35' E 031°20'0 0.0
2017-Aug-14 16:55N 46°35' E 031°20'0 0.1
2017-Aug-14 16:25N 46°35' E 031°20'0 0.1
2017-Aug-14 15:55N 46°35' E 031°20'0 0.0
2017-Aug-14 14:49N 46°35' E 031°20'0 0.2
2017-Aug-14 14:19N 46°35' E 031°20'0 0.0
2017-Aug-14 13:55N 46°35' E 031°20'0 0.0
2017-Aug-14 13:28N 46°35' E 031°20'0 0.0
2017-Aug-14 12:37N 46°35' E 031°20'0 0.0
2017-Aug-14 12:28N 46°35' E 031°20'0 0.0
2017-Aug-14 11:55N 46°35' E 031°20'0 0.0
2017-Aug-14 11:25N 46°35' E 031°20'0 0.1
2017-Aug-14 10:58N 46°35' E 031°20'0 0.1
2017-Aug-14 10:28N 46°35' E 031°20'0 0.0
2017-Aug-14 09:55N 46°35' E 031°20'0 0.1
2017-Aug-14 09:28N 46°35' E 031°20'0 0.0
2017-Aug-14 08:55N 46°35' E 031°20'0 0.0
2017-Aug-14 08:10N 46°35' E 031°20'0 0.0
2017-Aug-14 07:55N 46°35' E 031°20'0 0.0
2017-Aug-14 07:28N 46°35' E 031°20'0 0.0
2017-Aug-14 06:55N 46°35' E 031°20'0 0.0
2017-Aug-14 06:28N 46°35' E 031°20'0 0.0
2017-Aug-14 06:00N 46°35' E 031°20'1 1.2
2017-Aug-14 05:22N 46°35' E 031°19'0 0.0
2017-Aug-13 17:15N 46°35' E 031°19'0 0.0
2017-Aug-13 16:57N 46°35' E 031°19'0 0.0
2017-Aug-13 16:30N 46°35' E 031°19'0 0.0
2017-Aug-13 16:00N 46°35' E 031°19'0 0.5
2017-Aug-13 15:31N 46°35' E 031°19'0 0.5
2017-Aug-13 14:59N 46°35' E 031°19'0 0.0
2017-Aug-13 14:26N 46°35' E 031°19'1 1.8
2017-Aug-13 14:01N 46°35' E 031°20'  
Track history (hours):
 
Tides and Currents Weather Stations Pressure Air Temp Water Temp Dewpoint Dewpoint Depression Visibility Wind Speed Wind Dir Waves Ship Positions

Nibulon 1

Last reported at 2017-Aug-23 13:30 UTC. Time now 2017-Aug-23 13:49 UTC.
Position N 46°34' E 031°19'.

Length 38 m; draft 2.6 m.

Type: Tug. MMSI: 272641000.

Date/timePositionNaut miles runAvg speedWind from/ knotsBaromVisibWave heightAir tempDewpointWater temp
2017-Aug-23 13:30N 46°34' E 031°19'2 4.3
2017-Aug-23 12:59N 46°34' E 031°22'14 4.5
2017-Aug-23 09:59N 46°35' E 031°42'2 4.9
2017-Aug-23 09:30N 46°36' E 031°45'2 4.9
2017-Aug-23 09:00N 46°36' E 031°49'2 5.0
2017-Aug-23 08:31N 46°37' E 031°52'2 4.7
2017-Aug-23 08:01N 46°38' E 031°55'2 4.5
2017-Aug-23 07:31N 46°40' E 031°56'3 6.4
2017-Aug-23 07:00N 46°37' E 031°54'4 8.6
2017-Aug-23 06:30N 46°36' E 031°48'5 8.8
2017-Aug-23 05:55N 46°35' E 031°41'4 3.7
2017-Aug-23 04:54N 46°36' E 031°35'0 0.0
2017-Aug-23 03:39N 46°36' E 031°35'0 0.0
2017-Aug-23 03:30N 46°36' E 031°35'0 0.0
2017-Aug-23 02:54N 46°37' E 031°35'0 0.0
2017-Aug-23 02:24N 46°36' E 031°35'0 0.0
2017-Aug-23 02:00N 46°36' E 031°35'0 0.0
2017-Aug-23 01:30N 46°36' E 031°35'0 0.0
2017-Aug-23 00:42N 46°36' E 031°35'0 0.1
2017-Aug-23 00:18N 46°36' E 031°35'0 0.0
2017-Aug-22 23:54N 46°37' E 031°35'1 0.0
2017-Aug-22 01:48N 46°37' E 031°34'1 1.9
2017-Aug-22 01:30N 46°36' E 031°35'0 0.0
2017-Aug-22 00:42N 46°36' E 031°35'0 0.1
2017-Aug-22 00:30N 46°36' E 031°35'0 0.0
2017-Aug-21 23:24N 46°36' E 031°35'0 0.0
2017-Aug-21 22:30N 46°36' E 031°35'0 0.0
2017-Aug-21 22:00N 46°36' E 031°35'0 0.0
2017-Aug-21 21:30N 46°36' E 031°35'0 0.0
2017-Aug-21 20:57N 46°36' E 031°35'0 0.0
2017-Aug-21 20:18N 46°36' E 031°35'0 0.1
2017-Aug-21 19:54N 46°36' E 031°35'0 0.0
2017-Aug-21 19:27N 46°36' E 031°35'0 0.0
2017-Aug-21 19:00N 46°36' E 031°35'0 0.1
2017-Aug-21 17:12N 46°37' E 031°35'0 0.2
2017-Aug-21 17:00N 46°37' E 031°35'0 0.0
2017-Aug-21 16:30N 46°37' E 031°35'0 0.1
2017-Aug-21 15:06N 46°37' E 031°35'0 0.1
2017-Aug-21 14:06N 46°37' E 031°35'0 0.1
2017-Aug-21 12:54N 46°37' E 031°35'0 0.0
2017-Aug-21 04:30N 46°36' E 031°35'0 0.0
2017-Aug-21 03:54N 46°36' E 031°35'0 0.0
2017-Aug-21 03:06N 46°36' E 031°35'0 0.0
2017-Aug-21 03:00N 46°36' E 031°35'0 0.0
2017-Aug-21 02:24N 46°36' E 031°35'0 0.0
2017-Aug-20 05:42N 46°36' E 031°35'0 0.0
2017-Aug-20 05:30N 46°36' E 031°35'0 0.0
2017-Aug-20 05:00N 46°36' E 031°35'0 0.0
2017-Aug-20 04:30N 46°36' E 031°35'0 0.0
2017-Aug-20 04:00N 46°36' E 031°35'0 0.0
2017-Aug-20 03:30N 46°36' E 031°35'0 0.0
2017-Aug-20 03:00N 46°36' E 031°35'0 0.0
2017-Aug-19 21:06N 46°36' E 031°35'0 0.0
2017-Aug-19 20:36N 46°36' E 031°35'0 0.0
2017-Aug-19 20:27N 46°36' E 031°35'0 0.0
2017-Aug-19 19:54N 46°36' E 031°35'0 0.0
2017-Aug-19 19:30N 46°36' E 031°35'0 0.0
2017-Aug-19 19:00N 46°36' E 031°35'0 0.0
2017-Aug-19 10:36N 46°36' E 031°35'0 0.0
2017-Aug-19 06:48N 46°36' E 031°35'0 0.0
2017-Aug-19 06:27N 46°36' E 031°35'0 0.0
2017-Aug-19 06:00N 46°36' E 031°35'0 0.0
2017-Aug-19 05:30N 46°36' E 031°35'0 0.0
2017-Aug-19 05:00N 46°36' E 031°35'0 0.2
2017-Aug-19 04:30N 46°36' E 031°35'1 1.9
2017-Aug-19 04:00N 46°36' E 031°36'1 2.9
2017-Aug-19 03:31N 46°35' E 031°38'2 3.1
2017-Aug-19 03:00N 46°35' E 031°41'2 3.1
2017-Aug-19 02:31N 46°35' E 031°43'2 3.2
2017-Aug-19 02:00N 46°35' E 031°45'2 3.3
2017-Aug-19 01:30N 46°35' E 031°48'2 3.2
2017-Aug-19 01:01N 46°35' E 031°50'2 3.2
2017-Aug-19 00:31N 46°35' E 031°52'2 3.2
2017-Aug-19 00:00N 46°34' E 031°54'2 3.2
2017-Aug-18 23:31N 46°34' E 031°57'2 3.2
2017-Aug-18 23:01N 46°33' E 031°59'2 3.2
2017-Aug-18 22:30N 46°33' E 032°01'2 3.2
2017-Aug-18 22:00N 46°32' E 032°03'2 3.3
2017-Aug-18 21:30N 46°32' E 032°06'2 3.4
2017-Aug-18 20:58N 46°32' E 032°08'3 3.3
2017-Aug-18 20:02N 46°33' E 032°12'  
2017-Aug-15 21:09N 46°33' E 032°19'1 4.2
2017-Aug-15 21:00N 46°33' E 032°18'2 4.2
2017-Aug-15 20:31N 46°33' E 032°15'2 4.6
2017-Aug-15 20:00N 46°33' E 032°12'2 4.6
2017-Aug-15 19:30N 46°32' E 032°09'2 4.6
2017-Aug-15 19:01N 46°32' E 032°05'2 4.6
2017-Aug-15 18:31N 46°32' E 032°02'2 4.7
2017-Aug-15 18:01N 46°33' E 031°59'25 4.4
2017-Aug-15 12:14N 46°35' E 031°22'1 5.3
2017-Aug-15 12:01N 46°35' E 031°20'0 0.1
2017-Aug-15 11:06N 46°35' E 031°20'0 0.1
2017-Aug-15 11:00N 46°35' E 031°20'0 0.1
2017-Aug-15 10:21N 46°35' E 031°20'0 1.2
2017-Aug-15 10:00N 46°35' E 031°20'0 0.0
2017-Aug-15 08:36N 46°35' E 031°20'0 0.0
2017-Aug-15 08:18N 46°35' E 031°20'0 0.0
2017-Aug-15 06:33N 46°35' E 031°20'0 0.0
2017-Aug-15 06:15N 46°35' E 031°20'0 0.0
2017-Aug-15 05:48N 46°35' E 031°20'0 0.0
2017-Aug-15 05:27N 46°35' E 031°20'0 0.4
2017-Aug-15 04:48N 46°35' E 031°20'1 4.3
2017-Aug-15 04:30N 46°35' E 031°22'6 4.5
2017-Aug-15 03:17N 46°36' E 031°30'2 4.7
2017-Aug-15 02:56N 46°35' E 031°32'2 0.5
2017-Aug-14 21:43N 46°36' E 031°35'2 5.8
2017-Aug-14 21:26N 46°35' E 031°33'2 5.4
2017-Aug-14 21:00N 46°36' E 031°30'3 5.3
2017-Aug-14 20:30N 46°35' E 031°26'3 5.5
2017-Aug-14 20:00N 46°35' E 031°22'1 2.5
2017-Aug-14 19:28N 46°35' E 031°20'0 0.1
2017-Aug-14 18:46N 46°35' E 031°20'0 0.0
2017-Aug-14 18:25N 46°35' E 031°20'0 0.0
2017-Aug-14 17:43N 46°35' E 031°20'0 0.0
2017-Aug-14 17:28N 46°35' E 031°20'0 0.0
2017-Aug-14 16:55N 46°35' E 031°20'0 0.1
2017-Aug-14 16:25N 46°35' E 031°20'0 0.1
2017-Aug-14 15:55N 46°35' E 031°20'0 0.0
2017-Aug-14 14:49N 46°35' E 031°20'0 0.2
2017-Aug-14 14:19N 46°35' E 031°20'0 0.0
2017-Aug-14 13:55N 46°35' E 031°20'0 0.0
2017-Aug-14 13:28N 46°35' E 031°20'0 0.0
2017-Aug-14 12:37N 46°35' E 031°20'0 0.0
2017-Aug-14 12:28N 46°35' E 031°20'0 0.0
2017-Aug-14 11:55N 46°35' E 031°20'0 0.0
2017-Aug-14 11:25N 46°35' E 031°20'0 0.1
2017-Aug-14 10:58N 46°35' E 031°20'0 0.1
2017-Aug-14 10:28N 46°35' E 031°20'0 0.0
2017-Aug-14 09:55N 46°35' E 031°20'0 0.1
2017-Aug-14 09:28N 46°35' E 031°20'0 0.0
2017-Aug-14 08:55N 46°35' E 031°20'0 0.0
2017-Aug-14 08:10N 46°35' E 031°20'0 0.0
2017-Aug-14 07:55N 46°35' E 031°20'0 0.0
2017-Aug-14 07:28N 46°35' E 031°20'0 0.0
2017-Aug-14 06:55N 46°35' E 031°20'0 0.0
2017-Aug-14 06:28N 46°35' E 031°20'0 0.0
2017-Aug-14 06:00N 46°35' E 031°20'1 1.2
2017-Aug-14 05:22N 46°35' E 031°19'0 0.0
2017-Aug-13 17:15N 46°35' E 031°19'0 0.0
2017-Aug-13 16:57N 46°35' E 031°19'0 0.0
2017-Aug-13 16:30N 46°35' E 031°19'0 0.0
2017-Aug-13 16:00N 46°35' E 031°19'0 0.5
2017-Aug-13 15:31N 46°35' E 031°19'0 0.5
2017-Aug-13 14:59N 46°35' E 031°19'0 0.0
2017-Aug-13 14:26N 46°35' E 031°19'1 1.8
2017-Aug-13 14:01N 46°35' E 031°20'  

Dump ship's entire track history